sensor_id;sensor_type;location;lat;lon;timestamp;P1;durP1;ratioP1;P2;durP2;ratioP2
61188;SDS011;47054;39.716;2.904;2023-03-14T00:00:09;4.95;;;2.75;;
61188;SDS011;47054;39.716;2.904;2023-03-14T00:02:55;5.55;;;3.00;;
61188;SDS011;47054;39.716;2.904;2023-03-14T00:05:40;9.85;;;3.10;;
61188;SDS011;47054;39.716;2.904;2023-03-14T00:08:24;7.85;;;3.15;;
61188;SDS011;47054;39.716;2.904;2023-03-14T00:11:13;5.43;;;2.95;;
61188;SDS011;47054;39.716;2.904;2023-03-14T00:14:00;6.30;;;3.15;;
61188;SDS011;47054;39.716;2.904;2023-03-14T00:16:48;5.10;;;3.00;;
61188;SDS011;47054;39.716;2.904;2023-03-14T00:19:32;5.65;;;2.92;;
61188;SDS011;47054;39.716;2.904;2023-03-14T00:22:17;5.05;;;2.88;;
61188;SDS011;47054;39.716;2.904;2023-03-14T00:25:02;6.03;;;3.10;;
61188;SDS011;47054;39.716;2.904;2023-03-14T00:27:50;7.10;;;3.30;;
61188;SDS011;47054;39.716;2.904;2023-03-14T00:30:36;5.53;;;3.45;;
61188;SDS011;47054;39.716;2.904;2023-03-14T00:33:22;8.07;;;3.13;;
61188;SDS011;47054;39.716;2.904;2023-03-14T00:36:08;8.75;;;3.08;;
61188;SDS011;47054;39.716;2.904;2023-03-14T00:38:55;5.63;;;3.20;;
61188;SDS011;47054;39.716;2.904;2023-03-14T00:41:40;7.18;;;3.15;;
61188;SDS011;47054;39.716;2.904;2023-03-14T00:44:24;6.75;;;3.08;;
61188;SDS011;47054;39.716;2.904;2023-03-14T00:47:09;8.25;;;3.58;;
61188;SDS011;47054;39.716;2.904;2023-03-14T00:49:54;6.35;;;3.25;;
61188;SDS011;47054;39.716;2.904;2023-03-14T00:52:39;6.13;;;3.03;;
61188;SDS011;47054;39.716;2.904;2023-03-14T00:55:24;7.63;;;3.15;;
61188;SDS011;47054;39.716;2.904;2023-03-14T00:58:10;6.22;;;3.20;;
61188;SDS011;47054;39.716;2.904;2023-03-14T01:00:56;5.70;;;2.83;;
61188;SDS011;47054;39.716;2.904;2023-03-14T01:03:40;5.35;;;3.15;;
61188;SDS011;47054;39.716;2.904;2023-03-14T01:06:27;6.32;;;3.08;;
61188;SDS011;47054;39.716;2.904;2023-03-14T01:09:13;5.63;;;3.03;;
61188;SDS011;47054;39.716;2.904;2023-03-14T01:11:59;5.30;;;3.10;;
61188;SDS011;47054;39.716;2.904;2023-03-14T01:14:44;6.75;;;2.97;;
61188;SDS011;47054;39.716;2.904;2023-03-14T01:17:28;5.15;;;2.85;;
61188;SDS011;47054;39.716;2.904;2023-03-14T01:20:15;6.40;;;3.28;;
61188;SDS011;47054;39.716;2.904;2023-03-14T01:23:01;6.20;;;3.10;;
61188;SDS011;47054;39.716;2.904;2023-03-14T01:25:45;6.30;;;2.97;;
61188;SDS011;47054;39.716;2.904;2023-03-14T01:28:30;8.27;;;3.10;;
61188;SDS011;47054;39.716;2.904;2023-03-14T01:31:16;5.75;;;3.08;;
61188;SDS011;47054;39.716;2.904;2023-03-14T01:34:01;6.60;;;3.00;;
61188;SDS011;47054;39.716;2.904;2023-03-14T01:36:46;7.18;;;2.90;;
61188;SDS011;47054;39.716;2.904;2023-03-14T01:39:31;5.05;;;2.72;;
61188;SDS011;47054;39.716;2.904;2023-03-14T01:42:16;6.20;;;2.97;;
61188;SDS011;47054;39.716;2.904;2023-03-14T01:45:01;8.23;;;3.25;;
61188;SDS011;47054;39.716;2.904;2023-03-14T01:47:47;6.03;;;2.80;;
61188;SDS011;47054;39.716;2.904;2023-03-14T01:50:32;5.53;;;2.88;;
61188;SDS011;47054;39.716;2.904;2023-03-14T01:53:17;7.30;;;3.10;;
61188;SDS011;47054;39.716;2.904;2023-03-14T01:56:05;7.53;;;2.83;;
61188;SDS011;47054;39.716;2.904;2023-03-14T01:58:54;5.60;;;2.83;;
61188;SDS011;47054;39.716;2.904;2023-03-14T02:01:40;5.93;;;2.88;;
61188;SDS011;47054;39.716;2.904;2023-03-14T02:04:28;4.88;;;2.45;;
61188;SDS011;47054;39.716;2.904;2023-03-14T02:07:18;5.70;;;2.65;;
61188;SDS011;47054;39.716;2.904;2023-03-14T02:10:26;5.95;;;2.80;;
61188;SDS011;47054;39.716;2.904;2023-03-14T02:13:18;5.80;;;2.60;;
61188;SDS011;47054;39.716;2.904;2023-03-14T02:16:28;4.70;;;2.53;;
61188;SDS011;47054;39.716;2.904;2023-03-14T02:22:55;4.53;;;2.47;;
61188;SDS011;47054;39.716;2.904;2023-03-14T02:28:50;4.43;;;2.30;;
61188;SDS011;47054;39.716;2.904;2023-03-14T02:31:37;5.30;;;2.15;;
61188;SDS011;47054;39.716;2.904;2023-03-14T02:34:22;4.43;;;2.40;;
61188;SDS011;47054;39.716;2.904;2023-03-14T02:37:09;10.65;;;2.47;;
61188;SDS011;47054;39.716;2.904;2023-03-14T02:39:55;4.35;;;2.20;;
61188;SDS011;47054;39.716;2.904;2023-03-14T02:42:40;5.07;;;2.10;;
61188;SDS011;47054;39.716;2.904;2023-03-14T02:45:33;6.22;;;2.33;;
61188;SDS011;47054;39.716;2.904;2023-03-14T02:48:26;6.57;;;2.40;;
61188;SDS011;47054;39.716;2.904;2023-03-14T02:51:14;4.65;;;1.98;;
61188;SDS011;47054;39.716;2.904;2023-03-14T02:54:03;4.93;;;2.00;;
61188;SDS011;47054;39.716;2.904;2023-03-14T02:56:49;4.72;;;1.90;;
61188;SDS011;47054;39.716;2.904;2023-03-14T02:59:33;3.33;;;1.83;;
61188;SDS011;47054;39.716;2.904;2023-03-14T03:02:25;4.47;;;2.03;;
61188;SDS011;47054;39.716;2.904;2023-03-14T03:05:11;8.60;;;1.92;;
61188;SDS011;47054;39.716;2.904;2023-03-14T03:07:56;4.50;;;2.03;;
61188;SDS011;47054;39.716;2.904;2023-03-14T03:10:41;3.88;;;1.98;;
61188;SDS011;47054;39.716;2.904;2023-03-14T03:13:26;4.85;;;2.40;;
61188;SDS011;47054;39.716;2.904;2023-03-14T03:16:13;5.53;;;2.00;;
61188;SDS011;47054;39.716;2.904;2023-03-14T03:18:59;3.30;;;1.88;;
61188;SDS011;47054;39.716;2.904;2023-03-14T03:21:44;3.78;;;1.70;;
61188;SDS011;47054;39.716;2.904;2023-03-14T03:24:30;5.45;;;1.90;;
61188;SDS011;47054;39.716;2.904;2023-03-14T03:27:14;4.45;;;2.25;;
61188;SDS011;47054;39.716;2.904;2023-03-14T03:29:59;6.63;;;2.67;;
61188;SDS011;47054;39.716;2.904;2023-03-14T03:32:48;4.50;;;2.10;;
61188;SDS011;47054;39.716;2.904;2023-03-14T03:35:33;4.05;;;2.00;;
61188;SDS011;47054;39.716;2.904;2023-03-14T03:38:18;4.18;;;1.80;;
61188;SDS011;47054;39.716;2.904;2023-03-14T03:41:06;6.85;;;1.90;;
61188;SDS011;47054;39.716;2.904;2023-03-14T03:43:53;3.97;;;1.80;;
61188;SDS011;47054;39.716;2.904;2023-03-14T03:46:39;3.13;;;1.95;;
61188;SDS011;47054;39.716;2.904;2023-03-14T03:49:23;8.85;;;2.00;;
61188;SDS011;47054;39.716;2.904;2023-03-14T03:52:08;7.13;;;1.70;;
61188;SDS011;47054;39.716;2.904;2023-03-14T03:54:53;6.47;;;1.92;;
61188;SDS011;47054;39.716;2.904;2023-03-14T03:57:37;6.38;;;2.08;;
61188;SDS011;47054;39.716;2.904;2023-03-14T04:00:22;5.95;;;1.70;;
61188;SDS011;47054;39.716;2.904;2023-03-14T04:03:07;3.13;;;1.60;;
61188;SDS011;47054;39.716;2.904;2023-03-14T04:06:03;3.28;;;1.40;;
61188;SDS011;47054;39.716;2.904;2023-03-14T04:08:53;3.13;;;1.58;;
61188;SDS011;47054;39.716;2.904;2023-03-14T04:12:02;8.82;;;1.92;;
61188;SDS011;47054;39.716;2.904;2023-03-14T04:15:16;5.57;;;1.60;;
61188;SDS011;47054;39.716;2.904;2023-03-14T04:18:05;7.20;;;1.70;;
61188;SDS011;47054;39.716;2.904;2023-03-14T04:20:53;4.72;;;1.90;;
61188;SDS011;47054;39.716;2.904;2023-03-14T04:23:41;6.28;;;1.60;;
61188;SDS011;47054;39.716;2.904;2023-03-14T04:26:26;3.75;;;1.63;;
61188;SDS011;47054;39.716;2.904;2023-03-14T04:29:11;4.82;;;1.75;;
61188;SDS011;47054;39.716;2.904;2023-03-14T04:31:56;3.05;;;1.40;;
61188;SDS011;47054;39.716;2.904;2023-03-14T04:34:42;7.68;;;2.10;;
61188;SDS011;47054;39.716;2.904;2023-03-14T04:37:26;5.53;;;1.77;;
61188;SDS011;47054;39.716;2.904;2023-03-14T04:40:11;4.30;;;1.70;;
61188;SDS011;47054;39.716;2.904;2023-03-14T04:42:56;2.75;;;1.45;;
61188;SDS011;47054;39.716;2.904;2023-03-14T04:45:41;4.13;;;1.67;;
61188;SDS011;47054;39.716;2.904;2023-03-14T04:48:27;3.63;;;1.58;;
61188;SDS011;47054;39.716;2.904;2023-03-14T04:51:13;3.33;;;1.60;;
61188;SDS011;47054;39.716;2.904;2023-03-14T04:53:58;3.53;;;1.40;;
61188;SDS011;47054;39.716;2.904;2023-03-14T04:56:44;2.65;;;1.40;;
61188;SDS011;47054;39.716;2.904;2023-03-14T04:59:28;4.72;;;1.73;;
61188;SDS011;47054;39.716;2.904;2023-03-14T05:02:19;4.15;;;1.75;;
61188;SDS011;47054;39.716;2.904;2023-03-14T05:05:27;3.70;;;1.67;;
61188;SDS011;47054;39.716;2.904;2023-03-14T05:08:38;3.50;;;1.60;;
61188;SDS011;47054;39.716;2.904;2023-03-14T05:11:49;3.42;;;1.70;;
61188;SDS011;47054;39.716;2.904;2023-03-14T05:15:09;6.82;;;1.60;;
61188;SDS011;47054;39.716;2.904;2023-03-14T05:18:19;8.88;;;2.15;;
61188;SDS011;47054;39.716;2.904;2023-03-14T05:21:24;4.25;;;1.60;;
61188;SDS011;47054;39.716;2.904;2023-03-14T05:24:29;3.33;;;1.50;;
61188;SDS011;47054;39.716;2.904;2023-03-14T05:27:37;3.05;;;1.25;;
61188;SDS011;47054;39.716;2.904;2023-03-14T05:30:42;3.53;;;1.48;;
61188;SDS011;47054;39.716;2.904;2023-03-14T05:33:49;4.38;;;1.45;;
61188;SDS011;47054;39.716;2.904;2023-03-14T05:36:55;4.18;;;1.40;;
61188;SDS011;47054;39.716;2.904;2023-03-14T05:40:00;5.13;;;1.50;;
61188;SDS011;47054;39.716;2.904;2023-03-14T05:43:05;4.03;;;1.40;;
61188;SDS011;47054;39.716;2.904;2023-03-14T05:46:14;3.72;;;1.40;;
61188;SDS011;47054;39.716;2.904;2023-03-14T05:49:10;5.10;;;1.50;;
61188;SDS011;47054;39.716;2.904;2023-03-14T05:52:04;2.05;;;1.23;;
61188;SDS011;47054;39.716;2.904;2023-03-14T05:55:07;4.60;;;1.80;;
61188;SDS011;47054;39.716;2.904;2023-03-14T05:57:53;3.33;;;1.45;;
61188;SDS011;47054;39.716;2.904;2023-03-14T06:01:07;2.15;;;1.20;;
61188;SDS011;47054;39.716;2.904;2023-03-14T06:04:12;4.57;;;1.55;;
61188;SDS011;47054;39.716;2.904;2023-03-14T06:06:58;4.25;;;1.60;;
61188;SDS011;47054;39.716;2.904;2023-03-14T06:09:43;3.78;;;1.42;;
61188;SDS011;47054;39.716;2.904;2023-03-14T06:12:28;3.88;;;1.50;;
61188;SDS011;47054;39.716;2.904;2023-03-14T06:15:14;3.40;;;1.60;;
61188;SDS011;47054;39.716;2.904;2023-03-14T06:18:01;4.30;;;1.58;;
61188;SDS011;47054;39.716;2.904;2023-03-14T06:20:45;2.92;;;1.40;;
61188;SDS011;47054;39.716;2.904;2023-03-14T06:23:38;5.00;;;1.50;;
61188;SDS011;47054;39.716;2.904;2023-03-14T06:26:23;4.95;;;1.75;;
61188;SDS011;47054;39.716;2.904;2023-03-14T06:29:09;6.85;;;2.13;;
61188;SDS011;47054;39.716;2.904;2023-03-14T06:31:55;3.90;;;1.80;;
61188;SDS011;47054;39.716;2.904;2023-03-14T06:34:40;3.58;;;1.88;;
61188;SDS011;47054;39.716;2.904;2023-03-14T06:37:25;5.75;;;1.70;;
61188;SDS011;47054;39.716;2.904;2023-03-14T06:40:11;4.85;;;1.80;;
61188;SDS011;47054;39.716;2.904;2023-03-14T06:43:30;4.53;;;1.90;;
61188;SDS011;47054;39.716;2.904;2023-03-14T06:46:16;5.53;;;2.17;;
61188;SDS011;47054;39.716;2.904;2023-03-14T06:49:01;3.55;;;1.90;;
61188;SDS011;47054;39.716;2.904;2023-03-14T06:51:46;5.03;;;2.08;;
61188;SDS011;47054;39.716;2.904;2023-03-14T06:54:31;3.90;;;1.83;;
61188;SDS011;47054;39.716;2.904;2023-03-14T06:57:16;5.03;;;1.90;;
61188;SDS011;47054;39.716;2.904;2023-03-14T07:00:02;3.83;;;1.80;;
61188;SDS011;47054;39.716;2.904;2023-03-14T07:02:48;5.07;;;2.33;;
61188;SDS011;47054;39.716;2.904;2023-03-14T07:05:46;5.95;;;1.95;;
61188;SDS011;47054;39.716;2.904;2023-03-14T07:08:30;6.38;;;2.30;;
61188;SDS011;47054;39.716;2.904;2023-03-14T07:11:15;5.78;;;2.10;;
61188;SDS011;47054;39.716;2.904;2023-03-14T07:14:00;6.22;;;2.55;;
61188;SDS011;47054;39.716;2.904;2023-03-14T07:16:45;4.68;;;1.80;;
61188;SDS011;47054;39.716;2.904;2023-03-14T07:19:31;7.60;;;2.20;;
61188;SDS011;47054;39.716;2.904;2023-03-14T07:22:16;4.97;;;1.80;;
61188;SDS011;47054;39.716;2.904;2023-03-14T07:25:00;5.38;;;2.13;;
61188;SDS011;47054;39.716;2.904;2023-03-14T07:27:45;4.25;;;2.13;;
61188;SDS011;47054;39.716;2.904;2023-03-14T07:30:32;4.53;;;2.15;;
61188;SDS011;47054;39.716;2.904;2023-03-14T07:33:20;5.57;;;1.98;;
61188;SDS011;47054;39.716;2.904;2023-03-14T07:36:05;5.60;;;1.88;;
61188;SDS011;47054;39.716;2.904;2023-03-14T07:38:50;5.47;;;2.08;;
61188;SDS011;47054;39.716;2.904;2023-03-14T07:41:54;5.93;;;2.33;;
61188;SDS011;47054;39.716;2.904;2023-03-14T07:45:11;4.40;;;1.80;;
61188;SDS011;47054;39.716;2.904;2023-03-14T07:47:57;5.45;;;2.15;;
61188;SDS011;47054;39.716;2.904;2023-03-14T07:50:41;5.78;;;2.13;;
61188;SDS011;47054;39.716;2.904;2023-03-14T07:53:25;5.20;;;2.03;;
61188;SDS011;47054;39.716;2.904;2023-03-14T07:56:10;4.18;;;2.00;;
61188;SDS011;47054;39.716;2.904;2023-03-14T07:58:55;3.20;;;1.70;;
61188;SDS011;47054;39.716;2.904;2023-03-14T08:01:41;6.53;;;1.75;;
61188;SDS011;47054;39.716;2.904;2023-03-14T08:04:26;3.72;;;1.88;;
61188;SDS011;47054;39.716;2.904;2023-03-14T08:07:11;4.70;;;2.00;;
61188;SDS011;47054;39.716;2.904;2023-03-14T08:09:56;3.65;;;1.90;;
61188;SDS011;47054;39.716;2.904;2023-03-14T08:12:40;3.47;;;1.90;;
61188;SDS011;47054;39.716;2.904;2023-03-14T08:15:26;6.28;;;2.10;;
61188;SDS011;47054;39.716;2.904;2023-03-14T08:18:12;3.83;;;1.70;;
61188;SDS011;47054;39.716;2.904;2023-03-14T08:20:57;6.05;;;1.83;;
61188;SDS011;47054;39.716;2.904;2023-03-14T08:23:42;5.00;;;1.83;;
61188;SDS011;47054;39.716;2.904;2023-03-14T08:26:26;4.82;;;1.70;;
61188;SDS011;47054;39.716;2.904;2023-03-14T08:29:11;3.38;;;1.90;;
61188;SDS011;47054;39.716;2.904;2023-03-14T08:31:56;4.07;;;1.65;;
61188;SDS011;47054;39.716;2.904;2023-03-14T08:34:41;4.93;;;1.83;;
61188;SDS011;47054;39.716;2.904;2023-03-14T08:37:25;5.43;;;1.85;;
61188;SDS011;47054;39.716;2.904;2023-03-14T08:40:11;3.67;;;1.70;;
61188;SDS011;47054;39.716;2.904;2023-03-14T08:42:56;5.53;;;1.80;;
61188;SDS011;47054;39.716;2.904;2023-03-14T08:45:40;3.85;;;1.90;;
61188;SDS011;47054;39.716;2.904;2023-03-14T08:48:25;4.57;;;2.00;;
61188;SDS011;47054;39.716;2.904;2023-03-14T08:51:10;2.90;;;1.52;;
61188;SDS011;47054;39.716;2.904;2023-03-14T08:53:57;4.65;;;1.77;;
61188;SDS011;47054;39.716;2.904;2023-03-14T08:56:41;5.07;;;1.80;;
61188;SDS011;47054;39.716;2.904;2023-03-14T08:59:26;2.90;;;1.42;;
61188;SDS011;47054;39.716;2.904;2023-03-14T09:02:10;4.22;;;1.60;;
61188;SDS011;47054;39.716;2.904;2023-03-14T09:04:55;3.60;;;1.88;;
61188;SDS011;47054;39.716;2.904;2023-03-14T09:07:41;5.45;;;1.88;;
61188;SDS011;47054;39.716;2.904;2023-03-14T09:10:26;6.85;;;1.60;;
61188;SDS011;47054;39.716;2.904;2023-03-14T09:13:11;3.72;;;1.90;;
61188;SDS011;47054;39.716;2.904;2023-03-14T09:15:56;4.38;;;1.70;;
61188;SDS011;47054;39.716;2.904;2023-03-14T09:18:41;3.35;;;1.70;;
61188;SDS011;47054;39.716;2.904;2023-03-14T09:21:26;3.70;;;1.63;;
61188;SDS011;47054;39.716;2.904;2023-03-14T09:24:11;4.88;;;1.70;;
61188;SDS011;47054;39.716;2.904;2023-03-14T09:26:56;3.92;;;1.65;;
61188;SDS011;47054;39.716;2.904;2023-03-14T09:29:41;5.30;;;1.65;;
61188;SDS011;47054;39.716;2.904;2023-03-14T09:32:26;4.38;;;1.88;;
61188;SDS011;47054;39.716;2.904;2023-03-14T09:35:10;3.75;;;1.55;;
61188;SDS011;47054;39.716;2.904;2023-03-14T09:37:54;5.28;;;1.60;;
61188;SDS011;47054;39.716;2.904;2023-03-14T09:40:39;4.75;;;1.80;;
61188;SDS011;47054;39.716;2.904;2023-03-14T09:43:24;4.13;;;1.55;;
61188;SDS011;47054;39.716;2.904;2023-03-14T09:46:10;3.28;;;1.60;;
61188;SDS011;47054;39.716;2.904;2023-03-14T09:48:57;4.13;;;1.35;;
61188;SDS011;47054;39.716;2.904;2023-03-14T09:51:42;4.28;;;1.70;;
61188;SDS011;47054;39.716;2.904;2023-03-14T09:57:23;2.83;;;1.42;;
61188;SDS011;47054;39.716;2.904;2023-03-14T10:00:17;3.05;;;1.38;;
61188;SDS011;47054;39.716;2.904;2023-03-14T10:06:16;3.10;;;1.70;;
61188;SDS011;47054;39.716;2.904;2023-03-14T10:09:00;3.42;;;1.50;;
61188;SDS011;47054;39.716;2.904;2023-03-14T10:11:46;4.35;;;1.50;;
61188;SDS011;47054;39.716;2.904;2023-03-14T10:14:35;4.20;;;1.60;;
61188;SDS011;47054;39.716;2.904;2023-03-14T10:17:21;3.10;;;1.65;;
61188;SDS011;47054;39.716;2.904;2023-03-14T10:20:14;3.00;;;1.40;;
61188;SDS011;47054;39.716;2.904;2023-03-14T10:23:22;3.83;;;1.40;;
61188;SDS011;47054;39.716;2.904;2023-03-14T10:26:13;4.68;;;1.60;;
61188;SDS011;47054;39.716;2.904;2023-03-14T10:29:03;5.15;;;1.55;;
61188;SDS011;47054;39.716;2.904;2023-03-14T10:31:56;4.60;;;1.52;;
61188;SDS011;47054;39.716;2.904;2023-03-14T10:34:45;4.82;;;1.65;;
61188;SDS011;47054;39.716;2.904;2023-03-14T10:38:16;4.45;;;1.60;;
61188;SDS011;47054;39.716;2.904;2023-03-14T10:41:03;4.03;;;1.27;;
61188;SDS011;47054;39.716;2.904;2023-03-14T10:44:04;3.58;;;1.58;;
61188;SDS011;47054;39.716;2.904;2023-03-14T10:47:03;2.60;;;1.40;;
61188;SDS011;47054;39.716;2.904;2023-03-14T10:49:48;4.32;;;1.90;;
61188;SDS011;47054;39.716;2.904;2023-03-14T10:52:34;2.25;;;1.30;;
61188;SDS011;47054;39.716;2.904;2023-03-14T10:55:19;4.78;;;1.45;;
61188;SDS011;47054;39.716;2.904;2023-03-14T10:58:05;5.65;;;1.55;;
61188;SDS011;47054;39.716;2.904;2023-03-14T11:03:51;2.75;;;1.48;;
61188;SDS011;47054;39.716;2.904;2023-03-14T11:25:26;3.78;;;1.48;;
61188;SDS011;47054;39.716;2.904;2023-03-14T11:28:39;2.83;;;1.50;;
61188;SDS011;47054;39.716;2.904;2023-03-14T11:31:31;2.88;;;1.50;;
61188;SDS011;47054;39.716;2.904;2023-03-14T11:34:29;5.00;;;1.60;;
61188;SDS011;47054;39.716;2.904;2023-03-14T11:37:36;4.60;;;1.35;;
61188;SDS011;47054;39.716;2.904;2023-03-14T11:40:29;4.97;;;1.50;;
61188;SDS011;47054;39.716;2.904;2023-03-14T11:43:35;6.22;;;1.80;;
61188;SDS011;47054;39.716;2.904;2023-03-14T11:52:21;3.08;;;1.60;;
61188;SDS011;47054;39.716;2.904;2023-03-14T11:58:33;5.28;;;1.83;;
61188;SDS011;47054;39.716;2.904;2023-03-14T12:01:19;5.00;;;1.80;;
61188;SDS011;47054;39.716;2.904;2023-03-14T12:04:13;6.10;;;1.65;;
61188;SDS011;47054;39.716;2.904;2023-03-14T12:07:21;4.00;;;1.60;;
61188;SDS011;47054;39.716;2.904;2023-03-14T12:10:12;5.88;;;1.65;;
61188;SDS011;47054;39.716;2.904;2023-03-14T12:12:57;5.72;;;1.58;;
61188;SDS011;47054;39.716;2.904;2023-03-14T12:15:49;5.97;;;1.90;;
61188;SDS011;47054;39.716;2.904;2023-03-14T12:18:39;3.58;;;1.70;;
61188;SDS011;47054;39.716;2.904;2023-03-14T12:21:42;3.45;;;1.45;;
61188;SDS011;47054;39.716;2.904;2023-03-14T12:24:35;2.92;;;1.50;;
61188;SDS011;47054;39.716;2.904;2023-03-14T12:27:40;3.95;;;1.60;;
61188;SDS011;47054;39.716;2.904;2023-03-14T12:36:03;4.40;;;1.60;;
61188;SDS011;47054;39.716;2.904;2023-03-14T12:38:56;3.72;;;1.50;;
61188;SDS011;47054;39.716;2.904;2023-03-14T12:41:51;5.13;;;1.63;;
61188;SDS011;47054;39.716;2.904;2023-03-14T12:50:15;5.15;;;1.70;;
61188;SDS011;47054;39.716;2.904;2023-03-14T13:08:08;4.93;;;1.50;;
61188;SDS011;47054;39.716;2.904;2023-03-14T13:10:53;5.20;;;1.50;;
61188;SDS011;47054;39.716;2.904;2023-03-14T13:13:45;4.45;;;1.77;;
61188;SDS011;47054;39.716;2.904;2023-03-14T13:16:32;8.82;;;1.60;;
61188;SDS011;47054;39.716;2.904;2023-03-14T13:19:22;7.07;;;1.67;;
61188;SDS011;47054;39.716;2.904;2023-03-14T13:22:24;4.30;;;1.42;;
61188;SDS011;47054;39.716;2.904;2023-03-14T13:25:12;3.70;;;1.48;;
61188;SDS011;47054;39.716;2.904;2023-03-14T13:27:57;5.78;;;1.30;;
61188;SDS011;47054;39.716;2.904;2023-03-14T13:30:43;3.20;;;1.30;;
61188;SDS011;47054;39.716;2.904;2023-03-14T13:33:29;3.15;;;1.17;;
61188;SDS011;47054;39.716;2.904;2023-03-14T13:36:14;3.83;;;1.45;;
61188;SDS011;47054;39.716;2.904;2023-03-14T13:39:09;3.95;;;1.42;;
61188;SDS011;47054;39.716;2.904;2023-03-14T13:41:58;2.88;;;1.20;;
61188;SDS011;47054;39.716;2.904;2023-03-14T13:44:43;5.78;;;1.10;;
61188;SDS011;47054;39.716;2.904;2023-03-14T13:47:29;4.00;;;1.40;;
61188;SDS011;47054;39.716;2.904;2023-03-14T13:50:17;2.97;;;1.40;;
61188;SDS011;47054;39.716;2.904;2023-03-14T13:53:02;3.63;;;1.15;;
61188;SDS011;47054;39.716;2.904;2023-03-14T13:55:47;3.80;;;1.33;;
61188;SDS011;47054;39.716;2.904;2023-03-14T13:58:32;4.40;;;1.10;;
61188;SDS011;47054;39.716;2.904;2023-03-14T14:01:35;3.83;;;1.15;;
61188;SDS011;47054;39.716;2.904;2023-03-14T14:04:22;4.65;;;1.30;;
61188;SDS011;47054;39.716;2.904;2023-03-14T14:07:12;5.55;;;1.10;;
61188;SDS011;47054;39.716;2.904;2023-03-14T14:10:02;3.60;;;1.10;;
61188;SDS011;47054;39.716;2.904;2023-03-14T14:15:39;5.40;;;1.10;;
61188;SDS011;47054;39.716;2.904;2023-03-14T14:18:27;1.55;;;0.80;;
61188;SDS011;47054;39.716;2.904;2023-03-14T14:21:14;3.38;;;0.95;;
61188;SDS011;47054;39.716;2.904;2023-03-14T14:23:58;4.70;;;1.20;;
61188;SDS011;47054;39.716;2.904;2023-03-14T14:26:50;5.05;;;1.10;;
61188;SDS011;47054;39.716;2.904;2023-03-14T14:29:36;3.63;;;1.02;;
61188;SDS011;47054;39.716;2.904;2023-03-14T14:32:20;4.22;;;1.00;;
61188;SDS011;47054;39.716;2.904;2023-03-14T14:35:06;4.47;;;1.20;;
61188;SDS011;47054;39.716;2.904;2023-03-14T14:37:53;1.65;;;0.90;;
61188;SDS011;47054;39.716;2.904;2023-03-14T14:40:43;3.10;;;1.20;;
61188;SDS011;47054;39.716;2.904;2023-03-14T14:43:30;6.70;;;1.20;;
61188;SDS011;47054;39.716;2.904;2023-03-14T14:46:18;2.30;;;1.10;;
61188;SDS011;47054;39.716;2.904;2023-03-14T14:49:14;2.38;;;0.98;;
61188;SDS011;47054;39.716;2.904;2023-03-14T14:55:34;10.15;;;1.10;;
61188;SDS011;47054;39.716;2.904;2023-03-14T15:01:16;3.22;;;0.80;;
61188;SDS011;47054;39.716;2.904;2023-03-14T15:04:13;4.70;;;1.00;;
61188;SDS011;47054;39.716;2.904;2023-03-14T15:06:58;6.13;;;1.00;;
61188;SDS011;47054;39.716;2.904;2023-03-14T15:09:44;3.05;;;1.25;;
61188;SDS011;47054;39.716;2.904;2023-03-14T15:12:28;3.03;;;1.17;;
61188;SDS011;47054;39.716;2.904;2023-03-14T15:15:14;3.47;;;0.90;;
61188;SDS011;47054;39.716;2.904;2023-03-14T15:17:59;4.25;;;1.00;;
61188;SDS011;47054;39.716;2.904;2023-03-14T15:20:44;3.92;;;1.00;;
61188;SDS011;47054;39.716;2.904;2023-03-14T15:23:29;3.40;;;1.10;;
61188;SDS011;47054;39.716;2.904;2023-03-14T15:26:15;1.75;;;0.90;;
61188;SDS011;47054;39.716;2.904;2023-03-14T15:29:02;4.97;;;1.10;;
61188;SDS011;47054;39.716;2.904;2023-03-14T15:31:48;4.53;;;1.10;;
61188;SDS011;47054;39.716;2.904;2023-03-14T15:34:32;2.42;;;1.00;;
61188;SDS011;47054;39.716;2.904;2023-03-14T15:37:17;3.22;;;0.90;;
61188;SDS011;47054;39.716;2.904;2023-03-14T15:40:02;1.88;;;0.90;;
61188;SDS011;47054;39.716;2.904;2023-03-14T15:42:55;3.95;;;1.23;;
61188;SDS011;47054;39.716;2.904;2023-03-14T15:45:39;2.88;;;1.05;;
61188;SDS011;47054;39.716;2.904;2023-03-14T15:48:25;3.83;;;0.88;;
61188;SDS011;47054;39.716;2.904;2023-03-14T15:51:09;4.18;;;1.10;;
61188;SDS011;47054;39.716;2.904;2023-03-14T15:53:54;2.42;;;0.88;;
61188;SDS011;47054;39.716;2.904;2023-03-14T15:56:39;3.42;;;0.93;;
61188;SDS011;47054;39.716;2.904;2023-03-14T15:59:23;3.85;;;1.00;;
61188;SDS011;47054;39.716;2.904;2023-03-14T16:02:09;3.90;;;0.90;;
61188;SDS011;47054;39.716;2.904;2023-03-14T16:04:54;3.83;;;1.00;;
61188;SDS011;47054;39.716;2.904;2023-03-14T16:07:39;2.88;;;0.70;;
61188;SDS011;47054;39.716;2.904;2023-03-14T16:10:24;5.13;;;1.10;;
61188;SDS011;47054;39.716;2.904;2023-03-14T16:13:09;4.72;;;0.90;;
61188;SDS011;47054;39.716;2.904;2023-03-14T16:18:42;2.28;;;0.60;;
61188;SDS011;47054;39.716;2.904;2023-03-14T16:21:27;3.03;;;1.15;;
61188;SDS011;47054;39.716;2.904;2023-03-14T16:24:12;4.22;;;1.10;;
61188;SDS011;47054;39.716;2.904;2023-03-14T16:26:56;4.93;;;0.90;;
61188;SDS011;47054;39.716;2.904;2023-03-14T16:29:41;2.53;;;0.70;;
61188;SDS011;47054;39.716;2.904;2023-03-14T16:32:26;2.72;;;0.80;;
61188;SDS011;47054;39.716;2.904;2023-03-14T16:35:11;8.35;;;1.15;;
61188;SDS011;47054;39.716;2.904;2023-03-14T16:37:58;1.63;;;0.73;;
61188;SDS011;47054;39.716;2.904;2023-03-14T16:40:44;2.25;;;0.90;;
61188;SDS011;47054;39.716;2.904;2023-03-14T16:43:39;1.90;;;0.70;;
61188;SDS011;47054;39.716;2.904;2023-03-14T16:46:25;2.92;;;1.00;;
61188;SDS011;47054;39.716;2.904;2023-03-14T16:49:11;3.40;;;1.00;;
61188;SDS011;47054;39.716;2.904;2023-03-14T16:51:55;3.95;;;0.90;;
61188;SDS011;47054;39.716;2.904;2023-03-14T16:54:40;2.15;;;0.80;;
61188;SDS011;47054;39.716;2.904;2023-03-14T16:57:25;1.92;;;0.80;;
61188;SDS011;47054;39.716;2.904;2023-03-14T17:00:09;2.38;;;0.98;;
61188;SDS011;47054;39.716;2.904;2023-03-14T17:02:55;2.80;;;0.70;;
61188;SDS011;47054;39.716;2.904;2023-03-14T17:05:46;1.95;;;0.75;;
61188;SDS011;47054;39.716;2.904;2023-03-14T17:08:32;4.38;;;0.90;;
61188;SDS011;47054;39.716;2.904;2023-03-14T17:11:17;2.58;;;0.95;;
61188;SDS011;47054;39.716;2.904;2023-03-14T17:14:02;1.90;;;0.90;;
61188;SDS011;47054;39.716;2.904;2023-03-14T17:16:47;5.05;;;0.90;;
61188;SDS011;47054;39.716;2.904;2023-03-14T17:19:33;2.90;;;0.90;;
61188;SDS011;47054;39.716;2.904;2023-03-14T17:22:18;2.50;;;0.88;;
61188;SDS011;47054;39.716;2.904;2023-03-14T17:25:03;2.67;;;0.98;;
61188;SDS011;47054;39.716;2.904;2023-03-14T17:27:48;3.17;;;0.80;;
61188;SDS011;47054;39.716;2.904;2023-03-14T17:30:33;2.17;;;0.80;;
61188;SDS011;47054;39.716;2.904;2023-03-14T17:33:17;2.10;;;0.98;;
61188;SDS011;47054;39.716;2.904;2023-03-14T17:36:03;2.38;;;0.70;;
61188;SDS011;47054;39.716;2.904;2023-03-14T17:38:48;2.35;;;0.88;;
61188;SDS011;47054;39.716;2.904;2023-03-14T17:41:32;1.95;;;0.70;;
61188;SDS011;47054;39.716;2.904;2023-03-14T17:44:17;3.70;;;0.95;;
61188;SDS011;47054;39.716;2.904;2023-03-14T17:47:02;2.60;;;0.90;;
61188;SDS011;47054;39.716;2.904;2023-03-14T17:49:46;2.67;;;0.88;;
61188;SDS011;47054;39.716;2.904;2023-03-14T17:52:31;1.50;;;0.50;;
61188;SDS011;47054;39.716;2.904;2023-03-14T17:55:17;3.10;;;0.93;;
61188;SDS011;47054;39.716;2.904;2023-03-14T17:58:03;1.63;;;0.88;;
61188;SDS011;47054;39.716;2.904;2023-03-14T18:00:48;1.65;;;0.85;;
61188;SDS011;47054;39.716;2.904;2023-03-14T18:03:32;1.83;;;0.90;;
61188;SDS011;47054;39.716;2.904;2023-03-14T18:06:17;1.73;;;0.80;;
61188;SDS011;47054;39.716;2.904;2023-03-14T18:09:01;1.20;;;0.70;;
61188;SDS011;47054;39.716;2.904;2023-03-14T18:11:48;2.55;;;0.70;;
61188;SDS011;47054;39.716;2.904;2023-03-14T18:14:34;2.83;;;0.70;;
61188;SDS011;47054;39.716;2.904;2023-03-14T18:17:19;0.93;;;0.68;;